Terminal Aerodrome Forecast
Issued by NWS

Home | Current Version | Previous Version | Text Only | Print | Product List | Glossary On
Versions: 1 2 3 4 5 6 7 8 9 10 11 12 13 14
000
FTPA31 PHFO 252300
TAFMDY
TAF
PMDY 252327Z 2600/2624 36006KT P6SM FEW025 SCT040
     FM260600 04007KT P6SM FEW025 SCT040
      AMD LTD TO CLD AND WIND=

USA.gov is the U.S. government's official web portal to all federal, state and local government web resources and services.